sensor_id;sensor_type;location;lat;lon;timestamp;P1;durP1;ratioP1;P2;durP2;ratioP2
36377;SDS011;22402;42.746;23.606;2023-07-31T00:00:00;5.50;;;5.00;;
36377;SDS011;22402;42.746;23.606;2023-07-31T00:02:25;7.43;;;4.70;;
36377;SDS011;22402;42.746;23.606;2023-07-31T00:04:51;6.30;;;4.97;;
36377;SDS011;22402;42.746;23.606;2023-07-31T00:07:16;8.03;;;4.40;;
36377;SDS011;22402;42.746;23.606;2023-07-31T00:09:42;4.93;;;4.20;;
36377;SDS011;22402;42.746;23.606;2023-07-31T00:12:07;8.30;;;5.07;;
36377;SDS011;22402;42.746;23.606;2023-07-31T00:14:33;7.00;;;5.37;;
36377;SDS011;22402;42.746;23.606;2023-07-31T00:16:58;5.37;;;4.10;;
36377;SDS011;22402;42.746;23.606;2023-07-31T00:19:24;5.30;;;4.50;;
36377;SDS011;22402;42.746;23.606;2023-07-31T00:21:49;4.70;;;4.20;;
36377;SDS011;22402;42.746;23.606;2023-07-31T00:24:15;4.70;;;4.30;;
36377;SDS011;22402;42.746;23.606;2023-07-31T00:26:40;5.13;;;4.50;;
36377;SDS011;22402;42.746;23.606;2023-07-31T00:29:06;4.20;;;3.80;;
36377;SDS011;22402;42.746;23.606;2023-07-31T00:31:31;5.37;;;4.87;;
36377;SDS011;22402;42.746;23.606;2023-07-31T00:33:56;5.07;;;4.63;;
36377;SDS011;22402;42.746;23.606;2023-07-31T00:36:22;4.57;;;4.17;;
36377;SDS011;22402;42.746;23.606;2023-07-31T00:38:48;4.97;;;4.20;;
36377;SDS011;22402;42.746;23.606;2023-07-31T00:41:14;4.80;;;4.40;;
36377;SDS011;22402;42.746;23.606;2023-07-31T00:43:39;4.20;;;3.80;;
36377;SDS011;22402;42.746;23.606;2023-07-31T00:46:05;6.33;;;4.00;;
36377;SDS011;22402;42.746;23.606;2023-07-31T00:48:30;4.27;;;3.87;;
36377;SDS011;22402;42.746;23.606;2023-07-31T00:50:57;7.80;;;4.77;;
36377;SDS011;22402;42.746;23.606;2023-07-31T00:53:23;4.53;;;4.03;;
36377;SDS011;22402;42.746;23.606;2023-07-31T00:55:50;5.80;;;3.97;;
36377;SDS011;22402;42.746;23.606;2023-07-31T00:58:17;4.70;;;4.30;;
36377;SDS011;22402;42.746;23.606;2023-07-31T01:00:42;4.63;;;4.23;;
36377;SDS011;22402;42.746;23.606;2023-07-31T01:03:08;5.30;;;4.77;;
36377;SDS011;22402;42.746;23.606;2023-07-31T01:08:29;5.53;;;4.80;;
36377;SDS011;22402;42.746;23.606;2023-07-31T01:11:16;4.80;;;4.40;;
36377;SDS011;22402;42.746;23.606;2023-07-31T01:13:46;6.00;;;4.40;;
36377;SDS011;22402;42.746;23.606;2023-07-31T01:16:12;6.40;;;4.47;;
36377;SDS011;22402;42.746;23.606;2023-07-31T01:18:38;6.30;;;4.07;;
36377;SDS011;22402;42.746;23.606;2023-07-31T01:21:06;4.63;;;4.23;;
36377;SDS011;22402;42.746;23.606;2023-07-31T01:26:39;6.47;;;5.33;;
36377;SDS011;22402;42.746;23.606;2023-07-31T01:29:10;5.50;;;5.00;;
36377;SDS011;22402;42.746;23.606;2023-07-31T01:31:42;4.93;;;4.53;;
36377;SDS011;22402;42.746;23.606;2023-07-31T01:34:13;4.40;;;4.00;;
36377;SDS011;22402;42.746;23.606;2023-07-31T01:36:40;5.97;;;5.03;;
36377;SDS011;22402;42.746;23.606;2023-07-31T01:39:05;5.07;;;4.67;;
36377;SDS011;22402;42.746;23.606;2023-07-31T01:41:31;5.27;;;4.70;;
36377;SDS011;22402;42.746;23.606;2023-07-31T01:43:56;5.80;;;4.83;;
36377;SDS011;22402;42.746;23.606;2023-07-31T01:46:22;5.50;;;5.00;;
36377;SDS011;22402;42.746;23.606;2023-07-31T01:48:48;7.50;;;5.43;;
36377;SDS011;22402;42.746;23.606;2023-07-31T01:51:13;6.63;;;5.33;;
36377;SDS011;22402;42.746;23.606;2023-07-31T01:53:38;5.20;;;4.60;;
36377;SDS011;22402;42.746;23.606;2023-07-31T01:56:04;5.57;;;5.07;;
36377;SDS011;22402;42.746;23.606;2023-07-31T01:58:29;6.97;;;5.40;;
36377;SDS011;22402;42.746;23.606;2023-07-31T02:00:55;5.63;;;5.13;;
36377;SDS011;22402;42.746;23.606;2023-07-31T02:03:21;5.20;;;4.70;;
36377;SDS011;22402;42.746;23.606;2023-07-31T02:05:47;5.40;;;4.90;;
36377;SDS011;22402;42.746;23.606;2023-07-31T02:08:14;6.50;;;5.13;;
36377;SDS011;22402;42.746;23.606;2023-07-31T02:10:40;6.03;;;4.30;;
36377;SDS011;22402;42.746;23.606;2023-07-31T02:13:06;6.13;;;5.53;;
36377;SDS011;22402;42.746;23.606;2023-07-31T02:15:31;7.17;;;4.90;;
36377;SDS011;22402;42.746;23.606;2023-07-31T02:17:57;5.53;;;4.90;;
36377;SDS011;22402;42.746;23.606;2023-07-31T02:20:23;6.00;;;5.40;;
36377;SDS011;22402;42.746;23.606;2023-07-31T02:22:48;5.20;;;4.70;;
36377;SDS011;22402;42.746;23.606;2023-07-31T02:25:14;8.20;;;5.20;;
36377;SDS011;22402;42.746;23.606;2023-07-31T02:27:39;6.53;;;5.80;;
36377;SDS011;22402;42.746;23.606;2023-07-31T02:30:05;5.20;;;4.70;;
36377;SDS011;22402;42.746;23.606;2023-07-31T02:32:31;5.43;;;4.90;;
36377;SDS011;22402;42.746;23.606;2023-07-31T02:34:56;6.00;;;5.40;;
36377;SDS011;22402;42.746;23.606;2023-07-31T02:37:22;6.53;;;5.90;;
36377;SDS011;22402;42.746;23.606;2023-07-31T02:39:48;6.60;;;5.73;;
36377;SDS011;22402;42.746;23.606;2023-07-31T02:42:14;7.03;;;5.77;;
36377;SDS011;22402;42.746;23.606;2023-07-31T02:44:39;11.20;;;5.73;;
36377;SDS011;22402;42.746;23.606;2023-07-31T02:49:40;6.47;;;5.87;;
36377;SDS011;22402;42.746;23.606;2023-07-31T02:52:05;5.93;;;5.33;;
36377;SDS011;22402;42.746;23.606;2023-07-31T02:54:31;6.67;;;5.87;;
36377;SDS011;22402;42.746;23.606;2023-07-31T02:56:56;5.93;;;5.40;;
36377;SDS011;22402;42.746;23.606;2023-07-31T02:59:22;6.87;;;6.17;;
36377;SDS011;22402;42.746;23.606;2023-07-31T03:01:47;6.17;;;5.30;;
36377;SDS011;22402;42.746;23.606;2023-07-31T03:04:13;11.67;;;5.57;;
36377;SDS011;22402;42.746;23.606;2023-07-31T03:06:38;6.87;;;5.97;;
36377;SDS011;22402;42.746;23.606;2023-07-31T03:09:04;6.67;;;5.40;;
36377;SDS011;22402;42.746;23.606;2023-07-31T03:11:29;6.50;;;5.90;;
36377;SDS011;22402;42.746;23.606;2023-07-31T03:13:54;6.40;;;5.80;;
36377;SDS011;22402;42.746;23.606;2023-07-31T03:16:20;6.47;;;5.73;;
36377;SDS011;22402;42.746;23.606;2023-07-31T03:18:45;7.57;;;6.23;;
36377;SDS011;22402;42.746;23.606;2023-07-31T03:21:10;10.60;;;5.87;;
36377;SDS011;22402;42.746;23.606;2023-07-31T03:23:37;7.87;;;7.17;;
36377;SDS011;22402;42.746;23.606;2023-07-31T03:26:07;7.67;;;6.27;;
36377;SDS011;22402;42.746;23.606;2023-07-31T03:28:33;9.70;;;8.00;;
36377;SDS011;22402;42.746;23.606;2023-07-31T03:30:58;8.90;;;8.10;;
36377;SDS011;22402;42.746;23.606;2023-07-31T03:33:24;8.33;;;7.63;;
36377;SDS011;22402;42.746;23.606;2023-07-31T03:35:50;8.13;;;7.43;;
36377;SDS011;22402;42.746;23.606;2023-07-31T03:38:15;9.93;;;7.97;;
36377;SDS011;22402;42.746;23.606;2023-07-31T03:40:40;9.90;;;7.93;;
36377;SDS011;22402;42.746;23.606;2023-07-31T03:43:06;10.00;;;8.07;;
36377;SDS011;22402;42.746;23.606;2023-07-31T03:45:31;7.73;;;7.13;;
36377;SDS011;22402;42.746;23.606;2023-07-31T03:47:57;8.80;;;7.67;;
36377;SDS011;22402;42.746;23.606;2023-07-31T03:50:23;7.70;;;7.00;;
36377;SDS011;22402;42.746;23.606;2023-07-31T03:52:50;8.70;;;7.80;;
36377;SDS011;22402;42.746;23.606;2023-07-31T03:55:15;8.10;;;7.40;;
36377;SDS011;22402;42.746;23.606;2023-07-31T03:57:41;7.87;;;7.10;;
36377;SDS011;22402;42.746;23.606;2023-07-31T04:00:06;9.07;;;7.50;;
36377;SDS011;22402;42.746;23.606;2023-07-31T04:02:32;8.90;;;8.00;;
36377;SDS011;22402;42.746;23.606;2023-07-31T04:04:58;7.80;;;7.10;;
36377;SDS011;22402;42.746;23.606;2023-07-31T04:07:23;10.77;;;6.60;;
36377;SDS011;22402;42.746;23.606;2023-07-31T04:09:49;8.33;;;7.50;;
36377;SDS011;22402;42.746;23.606;2023-07-31T04:12:14;8.93;;;8.03;;
36377;SDS011;22402;42.746;23.606;2023-07-31T04:14:39;8.60;;;7.70;;
36377;SDS011;22402;42.746;23.606;2023-07-31T04:17:05;8.10;;;7.40;;
36377;SDS011;22402;42.746;23.606;2023-07-31T04:19:31;7.60;;;6.90;;
36377;SDS011;22402;42.746;23.606;2023-07-31T04:21:56;9.37;;;8.47;;
36377;SDS011;22402;42.746;23.606;2023-07-31T04:24:22;7.13;;;6.43;;
36377;SDS011;22402;42.746;23.606;2023-07-31T04:26:52;7.20;;;6.60;;
36377;SDS011;22402;42.746;23.606;2023-07-31T04:29:18;9.20;;;8.27;;
36377;SDS011;22402;42.746;23.606;2023-07-31T04:31:44;7.47;;;6.87;;
36377;SDS011;22402;42.746;23.606;2023-07-31T04:34:09;14.77;;;7.40;;
36377;SDS011;22402;42.746;23.606;2023-07-31T04:36:36;8.10;;;7.30;;
36377;SDS011;22402;42.746;23.606;2023-07-31T04:39:02;7.83;;;7.10;;
36377;SDS011;22402;42.746;23.606;2023-07-31T04:41:27;7.83;;;7.07;;
36377;SDS011;22402;42.746;23.606;2023-07-31T04:43:53;7.67;;;6.80;;
36377;SDS011;22402;42.746;23.606;2023-07-31T04:46:18;7.20;;;6.40;;
36377;SDS011;22402;42.746;23.606;2023-07-31T04:48:43;6.53;;;5.87;;
36377;SDS011;22402;42.746;23.606;2023-07-31T04:51:09;7.70;;;7.00;;
36377;SDS011;22402;42.746;23.606;2023-07-31T04:53:35;8.70;;;6.53;;
36377;SDS011;22402;42.746;23.606;2023-07-31T04:56:00;8.50;;;7.70;;
36377;SDS011;22402;42.746;23.606;2023-07-31T04:58:26;8.00;;;7.30;;
36377;SDS011;22402;42.746;23.606;2023-07-31T05:00:51;7.87;;;7.17;;
36377;SDS011;22402;42.746;23.606;2023-07-31T05:03:17;10.30;;;8.40;;
36377;SDS011;22402;42.746;23.606;2023-07-31T05:05:42;8.40;;;7.30;;
36377;SDS011;22402;42.746;23.606;2023-07-31T05:08:08;9.57;;;8.60;;
36377;SDS011;22402;42.746;23.606;2023-07-31T05:10:33;8.80;;;7.90;;
36377;SDS011;22402;42.746;23.606;2023-07-31T05:12:59;9.77;;;8.87;;
36377;SDS011;22402;42.746;23.606;2023-07-31T05:15:24;9.63;;;8.73;;
36377;SDS011;22402;42.746;23.606;2023-07-31T05:17:50;10.30;;;9.40;;
36377;SDS011;22402;42.746;23.606;2023-07-31T05:20:15;10.30;;;9.30;;
36377;SDS011;22402;42.746;23.606;2023-07-31T05:22:40;12.20;;;11.00;;
36377;SDS011;22402;42.746;23.606;2023-07-31T05:25:06;11.97;;;10.87;;
36377;SDS011;22402;42.746;23.606;2023-07-31T05:27:32;14.03;;;12.53;;
36377;SDS011;22402;42.746;23.606;2023-07-31T05:29:57;15.60;;;14.10;;
36377;SDS011;22402;42.746;23.606;2023-07-31T05:32:23;16.57;;;14.97;;
36377;SDS011;22402;42.746;23.606;2023-07-31T05:34:50;17.77;;;15.87;;
36377;SDS011;22402;42.746;23.606;2023-07-31T05:37:17;17.63;;;15.73;;
36377;SDS011;22402;42.746;23.606;2023-07-31T05:39:42;21.40;;;17.00;;
36377;SDS011;22402;42.746;23.606;2023-07-31T05:42:08;21.87;;;19.57;;
36377;SDS011;22402;42.746;23.606;2023-07-31T05:44:33;23.50;;;21.00;;
36377;SDS011;22402;42.746;23.606;2023-07-31T05:46:59;25.17;;;20.50;;
36377;SDS011;22402;42.746;23.606;2023-07-31T05:49:25;24.40;;;21.80;;
36377;SDS011;22402;42.746;23.606;2023-07-31T05:51:50;24.53;;;21.93;;
36377;SDS011;22402;42.746;23.606;2023-07-31T05:54:16;25.13;;;21.60;;
36377;SDS011;22402;42.746;23.606;2023-07-31T05:56:41;27.00;;;22.20;;
36377;SDS011;22402;42.746;23.606;2023-07-31T05:59:08;26.93;;;22.50;;
36377;SDS011;22402;42.746;23.606;2023-07-31T06:01:34;26.53;;;22.97;;
36377;SDS011;22402;42.746;23.606;2023-07-31T06:03:59;24.23;;;21.60;;
36377;SDS011;22402;42.746;23.606;2023-07-31T06:06:25;26.73;;;21.90;;
36377;SDS011;22402;42.746;23.606;2023-07-31T06:08:50;22.87;;;18.80;;
36377;SDS011;22402;42.746;23.606;2023-07-31T06:11:16;20.00;;;17.83;;
36377;SDS011;22402;42.746;23.606;2023-07-31T06:13:41;19.37;;;16.73;;
36377;SDS011;22402;42.746;23.606;2023-07-31T06:16:07;18.23;;;16.33;;
36377;SDS011;22402;42.746;23.606;2023-07-31T06:18:33;15.90;;;13.37;;
36377;SDS011;22402;42.746;23.606;2023-07-31T06:20:58;14.20;;;12.70;;
36377;SDS011;22402;42.746;23.606;2023-07-31T06:23:24;15.00;;;12.70;;
36377;SDS011;22402;42.746;23.606;2023-07-31T06:25:49;13.90;;;12.57;;
36377;SDS011;22402;42.746;23.606;2023-07-31T06:28:14;14.37;;;12.73;;
36377;SDS011;22402;42.746;23.606;2023-07-31T06:30:40;16.53;;;14.27;;
36377;SDS011;22402;42.746;23.606;2023-07-31T06:33:05;14.33;;;12.83;;
36377;SDS011;22402;42.746;23.606;2023-07-31T06:35:31;16.50;;;13.53;;
36377;SDS011;22402;42.746;23.606;2023-07-31T06:37:56;14.67;;;12.40;;
36377;SDS011;22402;42.746;23.606;2023-07-31T06:40:22;14.50;;;12.57;;
36377;SDS011;22402;42.746;23.606;2023-07-31T06:42:47;16.23;;;12.77;;
36377;SDS011;22402;42.746;23.606;2023-07-31T06:45:13;14.27;;;12.80;;
36377;SDS011;22402;42.746;23.606;2023-07-31T06:47:38;14.93;;;12.90;;
36377;SDS011;22402;42.746;23.606;2023-07-31T06:50:04;14.33;;;12.83;;
36377;SDS011;22402;42.746;23.606;2023-07-31T06:52:30;14.10;;;12.70;;
36377;SDS011;22402;42.746;23.606;2023-07-31T06:55:03;14.33;;;12.83;;
36377;SDS011;22402;42.746;23.606;2023-07-31T06:57:29;15.27;;;12.97;;
36377;SDS011;22402;42.746;23.606;2023-07-31T06:59:55;14.20;;;12.43;;
36377;SDS011;22402;42.746;23.606;2023-07-31T07:02:20;13.93;;;12.50;;
36377;SDS011;22402;42.746;23.606;2023-07-31T07:04:46;11.87;;;10.50;;
36377;SDS011;22402;42.746;23.606;2023-07-31T07:07:11;13.50;;;12.20;;
36377;SDS011;22402;42.746;23.606;2023-07-31T07:09:37;12.93;;;10.90;;
36377;SDS011;22402;42.746;23.606;2023-07-31T07:12:02;9.97;;;8.97;;
36377;SDS011;22402;42.746;23.606;2023-07-31T07:14:29;11.07;;;9.70;;
36377;SDS011;22402;42.746;23.606;2023-07-31T07:16:54;10.30;;;9.30;;
36377;SDS011;22402;42.746;23.606;2023-07-31T07:19:20;11.40;;;8.73;;
36377;SDS011;22402;42.746;23.606;2023-07-31T07:21:45;12.00;;;9.20;;
36377;SDS011;22402;42.746;23.606;2023-07-31T07:24:11;10.03;;;9.03;;
36377;SDS011;22402;42.746;23.606;2023-07-31T07:26:36;8.10;;;7.30;;
36377;SDS011;22402;42.746;23.606;2023-07-31T07:29:02;8.83;;;8.03;;
36377;SDS011;22402;42.746;23.606;2023-07-31T07:31:28;7.90;;;7.20;;
36377;SDS011;22402;42.746;23.606;2023-07-31T07:33:53;7.90;;;7.20;;
36377;SDS011;22402;42.746;23.606;2023-07-31T07:36:19;7.03;;;6.40;;
36377;SDS011;22402;42.746;23.606;2023-07-31T07:38:44;7.13;;;6.43;;
36377;SDS011;22402;42.746;23.606;2023-07-31T07:41:10;6.30;;;5.70;;
36377;SDS011;22402;42.746;23.606;2023-07-31T07:43:35;6.40;;;5.80;;
36377;SDS011;22402;42.746;23.606;2023-07-31T07:46:00;6.07;;;5.47;;
36377;SDS011;22402;42.746;23.606;2023-07-31T07:48:26;11.20;;;5.77;;
36377;SDS011;22402;42.746;23.606;2023-07-31T07:50:51;6.40;;;5.80;;
36377;SDS011;22402;42.746;23.606;2023-07-31T07:53:17;8.10;;;6.67;;
36377;SDS011;22402;42.746;23.606;2023-07-31T07:55:42;7.30;;;6.53;;
36377;SDS011;22402;42.746;23.606;2023-07-31T07:58:08;8.20;;;7.40;;
36377;SDS011;22402;42.746;23.606;2023-07-31T08:00:33;7.60;;;6.90;;
36377;SDS011;22402;42.746;23.606;2023-07-31T08:02:58;8.20;;;7.43;;
36377;SDS011;22402;42.746;23.606;2023-07-31T08:05:24;7.30;;;6.60;;
36377;SDS011;22402;42.746;23.606;2023-07-31T08:07:50;7.93;;;6.20;;
36377;SDS011;22402;42.746;23.606;2023-07-31T08:10:15;7.20;;;6.50;;
36377;SDS011;22402;42.746;23.606;2023-07-31T08:12:41;7.40;;;6.70;;
36377;SDS011;22402;42.746;23.606;2023-07-31T08:15:06;7.10;;;6.50;;
36377;SDS011;22402;42.746;23.606;2023-07-31T08:17:32;7.40;;;6.60;;
36377;SDS011;22402;42.746;23.606;2023-07-31T08:19:58;7.20;;;6.50;;
36377;SDS011;22402;42.746;23.606;2023-07-31T08:22:23;6.67;;;6.07;;
36377;SDS011;22402;42.746;23.606;2023-07-31T08:24:50;6.43;;;5.70;;
36377;SDS011;22402;42.746;23.606;2023-07-31T08:27:15;5.77;;;5.27;;
36377;SDS011;22402;42.746;23.606;2023-07-31T08:29:40;6.60;;;5.27;;
36377;SDS011;22402;42.746;23.606;2023-07-31T08:32:06;7.93;;;5.00;;
36377;SDS011;22402;42.746;23.606;2023-07-31T08:34:31;6.27;;;5.60;;
36377;SDS011;22402;42.746;23.606;2023-07-31T08:36:57;7.97;;;4.77;;
36377;SDS011;22402;42.746;23.606;2023-07-31T08:39:22;6.63;;;4.37;;
36377;SDS011;22402;42.746;23.606;2023-07-31T08:41:48;5.40;;;4.20;;
36377;SDS011;22402;42.746;23.606;2023-07-31T08:44:13;4.73;;;4.10;;
36377;SDS011;22402;42.746;23.606;2023-07-31T08:46:40;4.70;;;4.30;;
36377;SDS011;22402;42.746;23.606;2023-07-31T08:49:06;4.63;;;4.23;;
36377;SDS011;22402;42.746;23.606;2023-07-31T08:51:35;4.97;;;4.47;;
36377;SDS011;22402;42.746;23.606;2023-07-31T08:54:01;5.23;;;4.73;;
36377;SDS011;22402;42.746;23.606;2023-07-31T08:56:29;4.97;;;4.43;;
36377;SDS011;22402;42.746;23.606;2023-07-31T08:58:55;5.90;;;4.60;;
36377;SDS011;22402;42.746;23.606;2023-07-31T09:01:20;6.33;;;4.90;;
36377;SDS011;22402;42.746;23.606;2023-07-31T09:03:46;4.90;;;4.50;;
36377;SDS011;22402;42.746;23.606;2023-07-31T09:06:13;5.30;;;4.17;;
36377;SDS011;22402;42.746;23.606;2023-07-31T09:08:40;6.17;;;4.63;;
36377;SDS011;22402;42.746;23.606;2023-07-31T09:11:07;6.83;;;4.63;;
36377;SDS011;22402;42.746;23.606;2023-07-31T09:13:33;4.63;;;3.90;;
36377;SDS011;22402;42.746;23.606;2023-07-31T09:15:59;4.90;;;3.90;;
36377;SDS011;22402;42.746;23.606;2023-07-31T09:18:24;4.47;;;4.07;;
36377;SDS011;22402;42.746;23.606;2023-07-31T09:21:05;4.30;;;3.90;;
36377;SDS011;22402;42.746;23.606;2023-07-31T09:23:44;4.53;;;4.13;;
36377;SDS011;22402;42.746;23.606;2023-07-31T09:26:11;4.97;;;4.43;;
36377;SDS011;22402;42.746;23.606;2023-07-31T09:28:53;4.10;;;3.80;;
36377;SDS011;22402;42.746;23.606;2023-07-31T09:31:31;4.40;;;4.00;;
36377;SDS011;22402;42.746;23.606;2023-07-31T09:34:04;6.40;;;4.27;;
36377;SDS011;22402;42.746;23.606;2023-07-31T09:36:30;4.30;;;3.90;;
36377;SDS011;22402;42.746;23.606;2023-07-31T09:38:57;4.80;;;4.20;;
36377;SDS011;22402;42.746;23.606;2023-07-31T09:41:27;4.30;;;3.80;;
36377;SDS011;22402;42.746;23.606;2023-07-31T09:43:53;4.23;;;3.83;;
36377;SDS011;22402;42.746;23.606;2023-07-31T09:46:20;4.03;;;3.73;;
36377;SDS011;22402;42.746;23.606;2023-07-31T09:48:46;3.97;;;3.30;;
36377;SDS011;22402;42.746;23.606;2023-07-31T09:51:12;3.20;;;2.90;;
36377;SDS011;22402;42.746;23.606;2023-07-31T09:53:37;6.60;;;3.03;;
36377;SDS011;22402;42.746;23.606;2023-07-31T09:56:02;2.57;;;2.37;;
36377;SDS011;22402;42.746;23.606;2023-07-31T09:58:29;2.43;;;2.23;;
36377;SDS011;22402;42.746;23.606;2023-07-31T10:00:59;3.03;;;2.57;;
36377;SDS011;22402;42.746;23.606;2023-07-31T10:03:26;8.63;;;2.73;;
36377;SDS011;22402;42.746;23.606;2023-07-31T10:05:53;2.20;;;2.10;;
36377;SDS011;22402;42.746;23.606;2023-07-31T10:08:21;2.23;;;2.03;;
36377;SDS011;22402;42.746;23.606;2023-07-31T10:10:51;2.23;;;1.80;;
36377;SDS011;22402;42.746;23.606;2023-07-31T10:13:16;1.60;;;1.50;;
36377;SDS011;22402;42.746;23.606;2023-07-31T10:15:43;1.40;;;1.33;;
36377;SDS011;22402;42.746;23.606;2023-07-31T10:18:10;1.63;;;1.53;;
36377;SDS011;22402;42.746;23.606;2023-07-31T10:20:37;1.83;;;1.73;;
36377;SDS011;22402;42.746;23.606;2023-07-31T10:23:03;2.07;;;1.80;;
36377;SDS011;22402;42.746;23.606;2023-07-31T10:25:29;1.77;;;1.67;;
36377;SDS011;22402;42.746;23.606;2023-07-31T10:27:55;2.00;;;1.80;;
36377;SDS011;22402;42.746;23.606;2023-07-31T10:30:25;2.07;;;1.97;;
36377;SDS011;22402;42.746;23.606;2023-07-31T10:32:53;2.00;;;1.90;;
36377;SDS011;22402;42.746;23.606;2023-07-31T10:35:19;2.13;;;1.83;;
36377;SDS011;22402;42.746;23.606;2023-07-31T10:37:47;1.80;;;1.70;;
36377;SDS011;22402;42.746;23.606;2023-07-31T10:40:15;1.83;;;1.73;;
36377;SDS011;22402;42.746;23.606;2023-07-31T10:42:45;1.50;;;1.40;;
36377;SDS011;22402;42.746;23.606;2023-07-31T10:45:25;1.63;;;1.53;;
36377;SDS011;22402;42.746;23.606;2023-07-31T10:48:01;5.60;;;1.10;;
36377;SDS011;22402;42.746;23.606;2023-07-31T10:50:28;2.60;;;1.47;;
36377;SDS011;22402;42.746;23.606;2023-07-31T10:52:55;2.10;;;1.63;;
36377;SDS011;22402;42.746;23.606;2023-07-31T10:55:41;1.50;;;1.40;;
36377;SDS011;22402;42.746;23.606;2023-07-31T10:58:12;1.40;;;1.30;;
36377;SDS011;22402;42.746;23.606;2023-07-31T11:00:39;1.13;;;1.10;;
36377;SDS011;22402;42.746;23.606;2023-07-31T11:03:10;6.63;;;1.50;;
36377;SDS011;22402;42.746;23.606;2023-07-31T11:05:41;1.60;;;1.50;;
36377;SDS011;22402;42.746;23.606;2023-07-31T11:08:27;1.07;;;1.07;;
36377;SDS011;22402;42.746;23.606;2023-07-31T11:13:47;0.80;;;0.80;;
36377;SDS011;22402;42.746;23.606;2023-07-31T11:16:18;0.80;;;0.80;;
36377;SDS011;22402;42.746;23.606;2023-07-31T11:18:46;0.87;;;0.83;;
36377;SDS011;22402;42.746;23.606;2023-07-31T11:21:20;1.60;;;1.23;;
36377;SDS011;22402;42.746;23.606;2023-07-31T11:23:48;0.80;;;0.80;;
36377;SDS011;22402;42.746;23.606;2023-07-31T11:26:17;0.90;;;0.90;;
36377;SDS011;22402;42.746;23.606;2023-07-31T11:28:45;1.10;;;1.00;;
36377;SDS011;22402;42.746;23.606;2023-07-31T11:31:12;1.50;;;1.30;;
36377;SDS011;22402;42.746;23.606;2023-07-31T11:33:37;1.17;;;1.13;;
36377;SDS011;22402;42.746;23.606;2023-07-31T11:36:03;1.00;;;1.00;;
36377;SDS011;22402;42.746;23.606;2023-07-31T11:38:32;1.10;;;1.00;;
36377;SDS011;22402;42.746;23.606;2023-07-31T11:41:00;0.80;;;0.80;;
36377;SDS011;22402;42.746;23.606;2023-07-31T11:43:33;1.10;;;1.00;;
36377;SDS011;22402;42.746;23.606;2023-07-31T11:46:01;1.10;;;1.00;;
36377;SDS011;22402;42.746;23.606;2023-07-31T11:48:32;1.97;;;1.20;;
36377;SDS011;22402;42.746;23.606;2023-07-31T11:51:01;1.43;;;1.33;;
36377;SDS011;22402;42.746;23.606;2023-07-31T11:53:30;1.10;;;1.00;;
36377;SDS011;22402;42.746;23.606;2023-07-31T11:56:00;1.23;;;0.97;;
36377;SDS011;22402;42.746;23.606;2023-07-31T11:58:29;1.47;;;1.37;;
36377;SDS011;22402;42.746;23.606;2023-07-31T12:00:56;1.13;;;1.10;;
36377;SDS011;22402;42.746;23.606;2023-07-31T12:03:23;2.10;;;1.13;;
36377;SDS011;22402;42.746;23.606;2023-07-31T12:05:49;1.50;;;1.10;;
36377;SDS011;22402;42.746;23.606;2023-07-31T12:08:14;1.13;;;1.03;;
36377;SDS011;22402;42.746;23.606;2023-07-31T12:10:41;1.17;;;0.93;;
36377;SDS011;22402;42.746;23.606;2023-07-31T12:13:10;2.20;;;1.40;;
36377;SDS011;22402;42.746;23.606;2023-07-31T12:15:41;1.40;;;1.30;;
36377;SDS011;22402;42.746;23.606;2023-07-31T12:18:14;1.20;;;1.00;;
36377;SDS011;22402;42.746;23.606;2023-07-31T12:21:14;1.43;;;1.30;;
36377;SDS011;22402;42.746;23.606;2023-07-31T12:23:37;1.67;;;1.57;;
36377;SDS011;22402;42.746;23.606;2023-07-31T12:28:40;1.70;;;1.50;;
36377;SDS011;22402;42.746;23.606;2023-07-31T12:31:06;2.07;;;1.67;;
36377;SDS011;22402;42.746;23.606;2023-07-31T12:33:33;1.97;;;1.83;;
36377;SDS011;22402;42.746;23.606;2023-07-31T12:36:00;1.30;;;1.20;;
36377;SDS011;22402;42.746;23.606;2023-07-31T12:38:27;1.60;;;1.50;;
36377;SDS011;22402;42.746;23.606;2023-07-31T12:40:52;1.87;;;1.70;;
36377;SDS011;22402;42.746;23.606;2023-07-31T12:43:17;1.57;;;1.47;;
36377;SDS011;22402;42.746;23.606;2023-07-31T12:45:43;2.00;;;1.80;;
36377;SDS011;22402;42.746;23.606;2023-07-31T12:48:08;1.93;;;1.70;;
36377;SDS011;22402;42.746;23.606;2023-07-31T12:50:35;1.60;;;1.33;;
36377;SDS011;22402;42.746;23.606;2023-07-31T12:53:04;1.87;;;1.67;;
36377;SDS011;22402;42.746;23.606;2023-07-31T12:55:29;1.60;;;1.50;;
36377;SDS011;22402;42.746;23.606;2023-07-31T12:57:55;1.77;;;1.67;;
36377;SDS011;22402;42.746;23.606;2023-07-31T13:00:21;1.70;;;1.60;;
36377;SDS011;22402;42.746;23.606;2023-07-31T13:02:47;1.27;;;1.17;;
36377;SDS011;22402;42.746;23.606;2023-07-31T13:05:12;2.13;;;1.67;;
36377;SDS011;22402;42.746;23.606;2023-07-31T13:07:38;1.70;;;1.60;;
36377;SDS011;22402;42.746;23.606;2023-07-31T13:10:04;2.47;;;1.70;;
36377;SDS011;22402;42.746;23.606;2023-07-31T13:12:30;2.47;;;2.00;;
36377;SDS011;22402;42.746;23.606;2023-07-31T13:14:56;2.10;;;1.23;;
36377;SDS011;22402;42.746;23.606;2023-07-31T13:17:21;1.60;;;1.30;;
36377;SDS011;22402;42.746;23.606;2023-07-31T13:19:47;1.70;;;1.53;;
36377;SDS011;22402;42.746;23.606;2023-07-31T13:22:12;1.90;;;1.53;;
36377;SDS011;22402;42.746;23.606;2023-07-31T13:24:37;3.40;;;1.70;;
36377;SDS011;22402;42.746;23.606;2023-07-31T13:27:03;2.43;;;1.90;;
36377;SDS011;22402;42.746;23.606;2023-07-31T13:29:29;2.00;;;1.80;;
36377;SDS011;22402;42.746;23.606;2023-07-31T13:31:55;2.23;;;1.93;;
36377;SDS011;22402;42.746;23.606;2023-07-31T13:34:20;1.77;;;1.67;;
36377;SDS011;22402;42.746;23.606;2023-07-31T13:36:46;1.77;;;1.60;;
36377;SDS011;22402;42.746;23.606;2023-07-31T13:39:11;1.70;;;1.60;;
36377;SDS011;22402;42.746;23.606;2023-07-31T13:41:37;1.43;;;1.33;;
36377;SDS011;22402;42.746;23.606;2023-07-31T13:44:06;6.27;;;1.70;;
36377;SDS011;22402;42.746;23.606;2023-07-31T13:46:31;1.77;;;1.67;;
36377;SDS011;22402;42.746;23.606;2023-07-31T13:48:57;1.53;;;1.20;;
36377;SDS011;22402;42.746;23.606;2023-07-31T13:51:24;1.70;;;1.60;;
36377;SDS011;22402;42.746;23.606;2023-07-31T13:53:50;1.93;;;1.60;;
36377;SDS011;22402;42.746;23.606;2023-07-31T13:56:15;2.10;;;1.43;;
36377;SDS011;22402;42.746;23.606;2023-07-31T13:58:41;2.03;;;1.70;;
36377;SDS011;22402;42.746;23.606;2023-07-31T14:01:06;1.60;;;1.30;;
36377;SDS011;22402;42.746;23.606;2023-07-31T14:03:32;1.97;;;1.73;;
36377;SDS011;22402;42.746;23.606;2023-07-31T14:05:57;2.20;;;1.97;;
36377;SDS011;22402;42.746;23.606;2023-07-31T14:08:23;6.00;;;2.27;;
36377;SDS011;22402;42.746;23.606;2023-07-31T14:10:48;2.67;;;2.10;;
36377;SDS011;22402;42.746;23.606;2023-07-31T14:13:14;9.80;;;6.47;;
36377;SDS011;22402;42.746;23.606;2023-07-31T14:15:41;6.90;;;4.83;;
36377;SDS011;22402;42.746;23.606;2023-07-31T14:18:07;3.77;;;2.53;;
36377;SDS011;22402;42.746;23.606;2023-07-31T14:20:32;3.03;;;2.00;;
36377;SDS011;22402;42.746;23.606;2023-07-31T14:22:58;3.03;;;1.83;;
36377;SDS011;22402;42.746;23.606;2023-07-31T14:25:24;1.90;;;1.80;;
36377;SDS011;22402;42.746;23.606;2023-07-31T14:27:49;1.47;;;1.23;;
36377;SDS011;22402;42.746;23.606;2023-07-31T14:30:15;1.90;;;1.53;;
36377;SDS011;22402;42.746;23.606;2023-07-31T14:32:41;1.40;;;1.30;;
36377;SDS011;22402;42.746;23.606;2023-07-31T14:35:06;3.10;;;1.80;;
36377;SDS011;22402;42.746;23.606;2023-07-31T14:37:42;1.17;;;1.07;;
36377;SDS011;22402;42.746;23.606;2023-07-31T14:40:10;1.73;;;1.63;;